createdAt,value
2022-09-20T00:01:20.273Z,988.3
2022-09-20T00:15:50.879Z,988.3
2022-09-20T00:30:21.327Z,988.3
2022-09-20T00:44:50.524Z,988.4
2022-09-20T00:59:20.261Z,988.4
2022-09-20T01:14:03.360Z,988.3
2022-09-20T01:28:25.361Z,988.3
2022-09-20T01:42:55.074Z,988.3
2022-09-20T01:57:27.868Z,988.4
2022-09-20T02:11:54.159Z,988.4
2022-09-20T02:26:24.996Z,988.4
2022-09-20T02:40:53.404Z,988.3
2022-09-20T02:55:24.550Z,988.3
2022-09-20T03:10:01.645Z,988.3
2022-09-20T03:24:34.011Z,988.2
2022-09-20T03:39:01.328Z,988.2
2022-09-20T03:53:30.216Z,988.3
2022-09-20T04:08:00.993Z,988.3
2022-09-20T04:22:32.254Z,988.3
2022-09-20T04:37:04.048Z,988.3
2022-09-20T04:51:35.406Z,988.4
2022-09-20T05:06:05.878Z,988.6
2022-09-20T05:20:36.448Z,988.7
2022-09-20T05:35:06.863Z,988.7
2022-09-20T05:49:37.666Z,988.8
2022-09-20T06:04:05.722Z,988.9
2022-09-20T06:18:37.983Z,988.9
2022-09-20T06:33:09.238Z,988.8
2022-09-20T06:47:39.892Z,989
2022-09-20T07:02:11.158Z,989.2
2022-09-20T07:16:43.550Z,989.2
2022-09-20T07:31:15.690Z,989.2
2022-09-20T07:45:46.438Z,989.3
2022-09-20T08:00:18.894Z,989.3
2022-09-20T08:14:52.671Z,989.4
2022-09-20T08:29:29.112Z,989.4
2022-09-20T08:43:55.876Z,989.6
2022-09-20T08:58:35.431Z,989.6
2022-09-20T09:13:02.510Z,989.7
2022-09-20T09:27:30.758Z,989.7
2022-09-20T09:42:06.038Z,989.6
2022-09-20T09:56:37.741Z,989.4
2022-09-20T10:11:05.688Z,989.4
2022-09-20T10:25:37.950Z,989.4
2022-09-20T10:40:04.975Z,989.5
2022-09-20T10:54:34.118Z,989.5
2022-09-20T11:09:03.669Z,989.7
2022-09-20T11:23:36.031Z,989.6
2022-09-20T11:38:07.689Z,989.7
2022-09-20T11:52:37.767Z,989.7
2022-09-20T12:07:18.577Z,989.5
2022-09-20T12:21:49.964Z,989.6
2022-09-20T12:36:19.937Z,989.6
2022-09-20T12:50:46.579Z,989.5
2022-09-20T13:05:17.070Z,989.6
2022-09-20T13:19:47.969Z,989.5
2022-09-20T13:34:24.524Z,989.5
2022-09-20T13:48:51.322Z,989.5
2022-09-20T14:03:21.450Z,989.4
2022-09-20T14:17:52.274Z,989.5
2022-09-20T14:32:23.240Z,989.4
2022-09-20T14:46:53.324Z,989.4
2022-09-20T15:01:24.331Z,989.3
2022-09-20T15:15:52.892Z,989.3
2022-09-20T15:30:23.813Z,989.4
2022-09-20T15:44:54.196Z,989.4
2022-09-20T16:13:59.961Z,989.5
2022-09-20T16:28:31.651Z,989.6
2022-09-20T16:43:02.939Z,989.6
2022-09-20T16:57:32.310Z,989.8
2022-09-20T17:12:01.959Z,989.9
2022-09-20T17:26:31.810Z,990
2022-09-20T17:41:02.173Z,990.2
2022-09-20T17:55:31.518Z,990.3
2022-09-20T18:10:02.979Z,990.4
2022-09-20T18:24:31.653Z,990.6
2022-09-20T18:39:00.692Z,990.8
2022-09-20T18:53:32.097Z,990.8
2022-09-20T19:08:01.426Z,990.9
2022-09-20T19:22:31.868Z,991.1
2022-09-20T19:37:02.605Z,991.2
2022-09-20T19:51:33.674Z,991.3
2022-09-20T20:06:08.726Z,991.3
2022-09-20T20:20:35.732Z,991.5
2022-09-20T20:35:06.034Z,991.6
2022-09-20T20:49:37.146Z,991.7
2022-09-20T21:04:07.700Z,991.8
2022-09-20T21:18:36.685Z,991.9
2022-09-20T21:33:06.662Z,991.9
2022-09-20T21:47:38.173Z,992
2022-09-20T22:02:12.498Z,992
2022-09-20T22:16:39.926Z,992.1
2022-09-20T22:31:15.048Z,992.2
2022-09-20T22:45:47.795Z,992.2
2022-09-20T23:00:12.622Z,992.1
2022-09-20T23:14:42.902Z,992.1
2022-09-20T23:29:14.128Z,992.1
2022-09-20T23:43:45.407Z,992.2
2022-09-20T23:58:14.098Z,992.2
